FE Warren AFB, Wyoming
Current Conditions -  °F | °C
As of 3:56 PM on Tuesday 21 Oct 2014 (Local Time) from KFEW Reporting Station
Few Clouds Few Clouds  
Wind Chill: 64°   Ceiling: Unl
Heat Index: 64°   Visibility: 10mi
Dew Point: 36°   Wind: 17mph
Humidity: 35%   Direction: 290°WNW
Pressure: 29.94"   Gusts: 23mph
Location:  41.139°N, 104.862°W
Report Text: KFEW 212156Z 29015G20KT 10SM FEW110 FEW130 18/02 A2994 RMK AO2A LTG DSNT W SLP089 T01780021 $
Loading
Personal Weather Stations






























Interactive Weather Map
Tropical Storm Tracking
New forecast layout! Learn more

10-Day Weather Forecast

Advertisements
Track Severe Weather on mobile